Terminal Aerodrome Forecast
Issued by NWS Boise, ID

Home | Current Version | Previous Version | Text Only | Print | Product List | Glossary On
Versions: 1 2 3 4 5 6 7 8 9 10 11 12 13 14 15 16 17 18 19
000
FTUS45 KBOI 270520
TAFBNO
TAF
KBNO 270520Z 2706/2806 22007KT 6SM -SHRA BR SCT020 OVC035
     FM271100 23006KT P6SM VCSH BKN035 OVC050
     FM272000 25014G20KT P6SM VCSH BKN100
     FM280200 27010KT P6SM BKN200=

USA.gov is the U.S. government's official web portal to all federal, state and local government web resources and services.